ADDS TAF Data INFO
IDs: Format: Raw Decoded Include METARs

Data at: 1211 UTC 18 Nov 2017

KCVS 181158Z AUTO 01023G29KT 10SM CLR 07/01 A3004 RMK AO2 PK WND 01033/26 SLP136 T00660007 10159 20066 52046 $

TAF KCVS 180959Z 1810/1916 30015G25KT 9999 FEW250 QNH2983INS
  BECMG 1814/1815 03015G25KT 9999 FEW200 QNH2989INS
  TEMPO 1815/1818 03030G40KT 520009
  BECMG 1823/1824 05012G18KT 9999 SKC QNH3008INS
  BECMG 1902/1903 17009KT 9999 SKC QNH3012INS TX17/1822Z TN10/1814Z